Flight Track Log - Related Links

Times and Time Zones

All times are in EDT time to prevent confusion due to time zone crossing. See the UPS1081 flight status page for this flight to view local times or setup timezone preferences in your user account.

Time Position Orientation Groundspeed Altitude Reporting Facility
EDT Latitude Longitude Course Direction KTS MPH feet Rate Location/Type
Mon 11:11:15 PM 40.6425 -74.3481 270° West 290 334 8,600  Level FlightAware ADS-B (KWWD)
Mon 11:12:05 PM 40.6290 -74.4349 251° West 305 351 11,700 3,259 Climbing FlightAware ADS-B (KWWD)
Mon 11:12:36 PM 40.6146 -74.4915 253° West 333 383 13,000 1,972 Climbing FlightAware ADS-B (KWWD)
Mon 11:14:28 PM 40.5688 -74.6703 251° West 400 460 16,400 1,849 Climbing FlightAware ADS-B (KPHL)
Mon 11:15:28 PM 40.5302 -74.8082 251° West 417 480 18,300 2,420 Climbing FlightAware ADS-B (KPHL)
Mon 11:16:27 PM 40.4906 -74.9561 251° West 436 502 21,200 2,950 Climbing FlightAware ADS-B (KPHL)
Mon 11:17:28 PM 40.4493 -75.1083 250° West 445 512 24,200 2,903 Climbing FlightAware ADS-B (KPHL)
Mon 11:18:00 PM 40.4558 -75.0844 250° West 448 516 25,700 2,488 Climbing FlightAware ADS-B (KPNE)
Mon 11:18:50 PM 40.3936 -75.3125 250° West 455 524 27,600 2,045 Climbing FlightAware ADS-B
Mon 11:19:28 PM 40.3672 -75.4082 250° West 466 536 28,700 2,449 Climbing FlightAware ADS-B (KPHL)
Mon 11:20:28 PM 40.3263 -75.5568 250° West 448 516 31,600 3,240 Climbing FlightAware ADS-B (KPHL)
Mon 11:21:08 PM 40.2727 -75.7496 251° West 438 504 34,100 3,240 Climbing FlightAware ADS-B (KWWD)
Mon 11:21:18 PM 40.2660 -75.7738 251° West 439 505 34,300 533 Climbing FlightAware ADS-B (KWWD)
Mon 11:21:53 PM 40.2652 -75.7764 250° West 442 509 34,500 1,130 Climbing FlightAware ADS-B
Mon 11:22:27 PM 40.2402 -75.8637 249° West 439 505 35,600 1,125 Climbing FlightAware ADS-B (KPHL)
Mon 11:23:13 PM 40.2652 -75.7764 250° West 442 509 36,000 407 Climbing FlightAware ADS-B
Mon 11:23:26 PM 40.1970 -76.0150 250° West 432 497 36,000  Level FlightAware ADS-B
Mon 11:23:55 PM 40.1760 -76.0870 250° West 429 494 36,000  Level FlightAware ADS-B
Mon 11:25:24 PM 40.1257 -76.2601 249° West 431 496 36,000  Level FlightAware ADS-B (KPHL)
Mon 11:25:57 PM 40.0909 -76.3796 249° West 431 496 36,000  Level FlightAware ADS-B (LFML / MRS)
Mon 11:26:38 PM 40.0613 -76.4804 249° West 434 499 36,000  Level FlightAware ADS-B (LFML / MRS)
Mon 11:27:17 PM 40.0442 -76.5386 249° West 435 501 36,000  Level FlightAware ADS-B (LFML / MRS)
Mon 11:28:09 PM 39.9955 -76.7037 249° West 436 502 36,000  Level FlightAware ADS-B
Mon 11:28:53 PM 39.9635 -76.8117 249° West 433 498 36,000  Level FlightAware ADS-B (LFML / MRS)
Mon 11:28:57 PM 39.9642 -76.8092 249° West 434 499 36,000  Level FlightAware ADS-B (KJYO)
Mon 11:29:33 PM 39.9955 -76.7037 249° West 436 502 36,000  Level FlightAware ADS-B
Mon 11:29:42 PM 39.9358 -76.9045 249° West 431 496 36,000  Level FlightAware ADS-B (KJYO)
Mon 11:31:07 PM 39.9955 -76.7037 249° West 409 471 36,000  Level FlightAware ADS-B
Mon 11:31:51 PM 39.8395 -77.2261 249° West 405 466 36,000  Level FlightAware ADS-B (KJYO)
Mon 11:32:18 PM 39.8223 -77.2830 249° West 405 466 36,000  Level FlightAware ADS-B (KJYO)
Mon 11:32:50 PM 39.8013 -77.3521 249° West 404 465 36,000  Level FlightAware ADS-B (KJYO)
Mon 11:33:14 PM 39.7824 -77.4146 249° West 402 463 36,000  Level FlightAware ADS-B
Mon 11:33:15 PM 39.7855 -77.4042 249° West 401 461 36,000  Level FlightAware ADS-B (KJYO)
Mon 11:33:46 PM 39.7614 -77.4837 249° West 399 459 36,000  Level FlightAware ADS-B (KJYO)
Mon 11:33:49 PM 39.7382 -77.5594 248° West 398 458 36,000  Level FlightAware ADS-B (KWWD)
Mon 11:34:10 PM 39.7493 -77.5232 249° West 398 458 36,000  Level FlightAware ADS-B (KJYO)
Mon 11:34:51 PM 39.7170 -77.6292 249° West 397 457 36,000  Level FlightAware ADS-B (KJYO)
Mon 11:35:20 PM 39.6969 -77.6941 249° West 396 456 36,000  Level FlightAware ADS-B (KJYO)
Mon 11:35:51 PM 39.6759 -77.7625 249° West 396 456 36,000  Level FlightAware ADS-B (KJYO)
Mon 11:36:21 PM 39.6553 -77.8298 249° West 396 456 36,000  Level FlightAware ADS-B (KJYO)
Mon 11:36:51 PM 39.6350 -77.8953 249° West 396 456 36,000  Level FlightAware ADS-B (KJYO)
Mon 11:37:18 PM 39.6202 -77.9432 249° West 396 456 36,000  Level FlightAware ADS-B (KJYO)
Mon 11:37:52 PM 39.5938 -78.0283 248° West 397 457 36,000  Level FlightAware ADS-B (KJYO)
Mon 11:38:22 PM 39.5754 -78.0873 248° West 397 457 36,000  Level FlightAware ADS-B (KJYO)
Mon 11:38:50 PM 39.5552 -78.1519 249° West 397 457 36,000  Level FlightAware ADS-B (KJYO)
Mon 11:39:22 PM 39.5377 -78.2080 249° West 397 457 36,000  Level FlightAware ADS-B (KJYO)
Mon 11:41:36 PM 39.4183 -78.5873 248° West 397 457 36,000  Level FlightAware ADS-B (KWWD)
Mon 11:42:09 PM 39.3954 -78.6591 248° West 396 456 36,000  Level FlightAware ADS-B (KWWD)
Mon 11:42:53 PM 39.3646 -78.7561 248° West 394 453 36,000  Level FlightAware ADS-B (KWWD)
Mon 11:43:29 PM 39.3396 -78.8343 248° West 393 452 36,000  Level FlightAware ADS-B (KWWD)
Mon 11:44:30 PM 39.2978 -78.9643 248° West 388 447 36,000  Level FlightAware ADS-B (KWWD)
Mon 11:45:37 PM 39.2514 -79.1084 247° West 391 450 36,000  Level FlightAware ADS-B (KWWD)
Mon 11:46:11 PM 39.2277 -79.1815 247° West 390 449 36,000  Level FlightAware ADS-B (KWWD)
Mon 11:48:17 PM 39.1401 -79.4503 247° West 386 444 36,000  Level FlightAware ADS-B (KWWD)
Mon 11:48:51 PM 39.1169 -79.5216 247° West 386 444 36,000  Level FlightAware ADS-B (KWWD)
Mon 11:49:22 PM 39.0952 -79.5874 247° West 386 444 36,000  Level FlightAware ADS-B (KWWD)
Mon 11:49:58 PM 39.0704 -79.6627 247° West 385 443 36,000  Level FlightAware ADS-B (KWWD)
Mon 11:51:01 PM 39.0265 -79.7955 248° West 383 441 36,000  Level FlightAware ADS-B (KWWD)
Mon 11:51:41 PM 38.9982 -79.8810 247° West 386 444 36,000  Level FlightAware ADS-B (KWWD)
Mon 11:52:21 PM 38.9704 -79.9646 247° West 386 444 36,000  Level FlightAware ADS-B (KWWD)
Mon 11:53:22 PM 38.9278 -80.0923 248° West 383 441 36,000  Level FlightAware ADS-B (KWWD)
Mon 11:54:10 PM 38.8936 -80.1942 248° West 383 441 36,000  Level FlightAware ADS-B (KWWD)
Mon 11:55:16 PM 38.8772 -80.2531 248° West 390 449 36,000  Level Washington Center
Mon 11:56:38 PM 38.8167 -80.4219 245° Southwest 386 444 36,000  Level Indianapolis Center
Mon 11:57:39 PM 38.7739 -80.5483 247° West 386 444 36,000  Level Indianapolis Center
Mon 11:58:41 PM 38.7308 -80.6744 246° West 386 444 36,000  Level Indianapolis Center
Mon 11:59:41 PM 38.6867 -80.8036 246° West 386 444 36,000  Level Indianapolis Center
Tue 12:00:42 AM 38.6447 -80.9261 246° West 386 444 36,000  Level Indianapolis Center
Tue 12:01:43 AM 38.6011 -81.0519 246° West 386 444 36,000  Level Indianapolis Center
Tue 12:02:44 AM 38.5578 -81.1772 246° West 385 443 36,000  Level Indianapolis Center
Tue 12:03:45 AM 38.5139 -81.3031 246° West 385 443 36,000  Level Indianapolis Center
Tue 12:04:46 AM 38.4700 -81.4289 246° West 384 442 36,000  Level Indianapolis Center
Tue 12:05:47 AM 38.4256 -81.5544 246° West 384 442 36,000  Level Indianapolis Center
Tue 12:06:47 AM 38.3731 -81.7042 246° West 383 441 36,000  Level Indianapolis Center
Tue 12:07:48 AM 38.3328 -81.8294 248° West 383 441 36,000  Level Indianapolis Center
Tue 12:08:49 AM 38.2961 -81.9608 250° West 383 441 36,000  Level Indianapolis Center
Tue 12:09:50 AM 38.2611 -82.0856 250° West 383 441 36,000  Level Indianapolis Center
Tue 12:10:51 AM 38.2250 -82.2133 250° West 384 442 36,000  Level Indianapolis Center
Tue 12:11:52 AM 38.1889 -82.3406 250° West 383 441 36,000 -885 Level Indianapolis Center
Tue 12:12:53 AM 38.1519 -82.4703 250° West 397 457 34,200 -1,117 Descending Indianapolis Center
Tue 12:18:08 AM 37.9709 -83.2188 258° West 421 484 29,000 -937 Descending FlightAware ADS-B
Tue 12:18:58 AM 37.9514 -83.3328 258° West 418 481 28,500 -818 Descending Indianapolis Center
Tue 12:19:58 AM 37.9258 -83.4786 258° West 421 484 27,500 -877 Descending Indianapolis Center
Tue 12:25:21 AM 37.7892 -84.2344 257° West 409 471 22,900 -1,131 Descending FlightAware ADS-B (KCVG)
Tue 12:26:36 AM 37.7503 -84.4443 257° West 394 453 20,000 -2,338 Descending FlightAware ADS-B
Tue 12:28:36 AM 37.7010 -84.7071 257° West 379 436 15,300 -2,346 Descending FlightAware ADS-B
Tue 12:29:35 AM 37.6765 -84.8377 257° West 369 425 13,000 -2,168 Descending FlightAware ADS-B
Tue 12:30:35 AM 37.6682 -84.9615 291° West 359 413 11,000 -1,240 Descending FlightAware ADS-B
Tue 12:31:36 AM 37.7287 -85.0570 313° West 326 375 10,500 -474 Descending FlightAware ADS-B
Tue 12:32:29 AM 37.7774 -85.1231 313° West 283 326 10,100 -200 Descending FlightAware ADS-B
Tue 12:33:36 AM 37.8386 -85.2076 312° West 287 330 10,100 -429 Level FlightAware ADS-B
Tue 12:34:35 AM 37.8912 -85.2807 312° West 283 326 9,200 -958 Descending FlightAware ADS-B
Tue 12:35:35 AM 37.9432 -85.3531 312° West 275 316 8,200 -1,000 Descending FlightAware ADS-B
Tue 12:36:35 AM 37.9944 -85.4246 312° West 272 313 7,200 -545 Descending FlightAware ADS-B
Tue 12:37:36 AM 38.0411 -85.4898 312° West 230 265 7,100 -50 Descending FlightAware ADS-B
Tue 12:38:36 AM 38.0844 -85.5505 312° West 231 266 7,100 -353 Level FlightAware ADS-B
Tue 12:39:35 AM 38.1349 -85.5929 338° Northwest 235 270 6,400 -559 Descending FlightAware ADS-B
Tue 12:40:34 AM 38.1953 -85.6219 340° North 229 264 6,000 -706 Descending FlightAware ADS-B
Tue 12:41:34 AM 38.2305 -85.6348 345° North 230 265 5,000 -733 Descending FlightAware ADS-B
Tue 12:45:37 AM 38.2907 -85.7534 181° South 186 214 2,300 -705 Descending FlightAware ADS-B
Tue 12:46:15 AM 38.2472 -85.7547 181° South 195 224 1,700 -673 Descending Indianapolis Center
Tue 12:47:15 AM 38.2075 -85.7386 162° South 184 212 1,200 -500 Descending Indianapolis Center

Login

Don't have an account? Register now (free) for customized features, flight alerts, and more!